createdAt,value
2022-09-03T00:01:59.387Z,100.00
2022-09-03T00:04:31.515Z,100.00
2022-09-03T00:07:03.578Z,100.00
2022-09-03T00:09:37.784Z,100.00
2022-09-03T00:12:25.033Z,100.00
2022-09-03T00:14:54.161Z,100.00
2022-09-03T00:17:25.889Z,100.00
2022-09-03T00:19:59.550Z,100.00
2022-09-03T00:22:32.228Z,100.00
2022-09-03T00:25:01.364Z,100.00
2022-09-03T00:27:28.866Z,100.00
2022-09-03T00:30:00.006Z,100.00
2022-09-03T00:32:37.626Z,100.00
2022-09-03T00:35:06.630Z,100.00
2022-09-03T00:37:38.058Z,100.00
2022-09-03T00:40:10.313Z,100.00
2022-09-03T00:42:47.446Z,100.00
2022-09-03T00:45:39.294Z,100.00
2022-09-03T00:48:31.012Z,100.00
2022-09-03T00:51:28.434Z,100.00
2022-09-03T00:54:13.318Z,100.00
2022-09-03T00:57:06.262Z,100.00
2022-09-03T00:59:39.620Z,100.00
2022-09-03T01:02:29.388Z,100.00
2022-09-03T01:05:19.596Z,100.00
2022-09-03T01:08:01.919Z,100.00
2022-09-03T01:10:44.994Z,100.00
2022-09-03T01:13:34.746Z,100.00
2022-09-03T01:16:14.801Z,100.00
2022-09-03T01:19:13.705Z,100.00
2022-09-03T01:22:15.352Z,100.00
2022-09-03T01:25:02.904Z,100.00
2022-09-03T01:27:39.709Z,100.00
2022-09-03T01:30:07.920Z,100.00
2022-09-03T01:32:58.180Z,100.00
2022-09-03T01:35:43.982Z,100.00
2022-09-03T01:38:49.024Z,100.00
2022-09-03T01:41:59.123Z,100.00
2022-09-03T01:44:44.727Z,100.00
2022-09-03T01:47:35.217Z,100.00
2022-09-03T01:50:17.710Z,100.00
2022-09-03T01:53:05.688Z,100.00
2022-09-03T01:55:36.467Z,100.00
2022-09-03T01:58:09.937Z,100.00
2022-09-03T02:00:40.405Z,100.00
2022-09-03T02:03:08.031Z,100.00
2022-09-03T02:05:35.852Z,100.00
2022-09-03T02:08:04.117Z,100.00
2022-09-03T02:10:42.343Z,100.00
2022-09-03T02:13:19.378Z,100.00
2022-09-03T02:15:48.582Z,100.00
2022-09-03T02:18:18.154Z,100.00
2022-09-03T02:20:46.699Z,100.00
2022-09-03T02:23:13.918Z,100.00
2022-09-03T02:25:43.355Z,100.00
2022-09-03T02:28:16.639Z,100.00
2022-09-03T02:30:44.334Z,100.00
2022-09-03T02:33:11.421Z,100.00
2022-09-03T02:35:40.524Z,100.00
2022-09-03T02:38:26.602Z,100.00
2022-09-03T02:40:56.547Z,100.00
2022-09-03T02:43:37.633Z,100.00
2022-09-03T02:46:05.998Z,100.00
2022-09-03T02:48:33.289Z,100.00
2022-09-03T02:51:00.169Z,100.00
2022-09-03T02:53:29.064Z,100.00
2022-09-03T02:56:00.223Z,100.00
2022-09-03T02:58:27.702Z,100.00
2022-09-03T03:00:54.645Z,100.00
2022-09-03T03:03:21.721Z,100.00
2022-09-03T03:05:52.662Z,100.00
2022-09-03T03:08:21.365Z,100.00
2022-09-03T03:10:49.627Z,100.00
2022-09-03T03:13:16.800Z,100.00
2022-09-03T03:15:44.533Z,100.00
2022-09-03T03:18:14.409Z,100.00
2022-09-03T03:20:42.203Z,100.00
2022-09-03T03:23:09.074Z,100.00
2022-09-03T03:25:37.138Z,100.00
2022-09-03T03:28:05.232Z,100.00
2022-09-03T03:30:32.833Z,100.00
2022-09-03T03:33:00.263Z,100.00
2022-09-03T03:35:27.167Z,100.00
2022-09-03T03:37:54.000Z,100.00
2022-09-03T03:40:20.828Z,100.00
2022-09-03T03:42:47.666Z,100.00
2022-09-03T03:45:14.597Z,100.00
2022-09-03T03:47:41.530Z,100.00
2022-09-03T03:50:08.686Z,100.00
2022-09-03T03:52:35.548Z,100.00
2022-09-03T03:55:02.478Z,100.00
2022-09-03T03:57:30.507Z,100.00
2022-09-03T03:59:57.286Z,100.00
2022-09-03T04:02:24.270Z,100.00
2022-09-03T04:04:51.165Z,100.00
2022-09-03T04:07:17.995Z,100.00
2022-09-03T04:09:44.915Z,100.00
2022-09-03T04:12:11.713Z,100.00
2022-09-03T04:14:38.773Z,100.00
2022-09-03T04:17:05.804Z,100.00
2022-09-03T04:19:32.615Z,100.00
2022-09-03T04:21:59.524Z,100.00
2022-09-03T04:24:27.434Z,100.00
2022-09-03T04:26:54.824Z,100.00
2022-09-03T04:29:22.230Z,100.00
2022-09-03T04:32:07.722Z,100.00
2022-09-03T04:34:34.562Z,100.00
2022-09-03T04:37:01.441Z,100.00
2022-09-03T04:39:28.310Z,100.00
2022-09-03T04:41:55.144Z,100.00
2022-09-03T04:44:21.961Z,100.00
2022-09-03T04:46:48.865Z,100.00
2022-09-03T04:49:15.756Z,100.00
2022-09-03T04:51:42.701Z,100.00
2022-09-03T04:54:10.530Z,100.00
2022-09-03T04:56:38.948Z,100.00
2022-09-03T04:59:07.600Z,100.00
2022-09-03T05:01:35.706Z,100.00
2022-09-03T05:04:03.078Z,100.00
2022-09-03T05:06:31.643Z,100.00
2022-09-03T05:08:58.488Z,100.00
2022-09-03T05:11:26.256Z,100.00
2022-09-03T05:13:54.630Z,100.00
2022-09-03T05:16:21.988Z,100.00
2022-09-03T05:18:48.834Z,100.00
2022-09-03T05:21:16.851Z,100.00
2022-09-03T05:23:45.079Z,100.00
2022-09-03T05:26:13.475Z,100.00
2022-09-03T05:28:41.388Z,100.00
2022-09-03T05:31:19.299Z,100.00
2022-09-03T05:33:47.673Z,100.00
2022-09-03T05:36:16.465Z,100.00
2022-09-03T05:38:43.846Z,100.00
2022-09-03T05:41:11.380Z,100.00
2022-09-03T05:43:38.381Z,100.00
2022-09-03T05:46:06.400Z,100.00
2022-09-03T05:48:37.450Z,100.00
2022-09-03T05:51:06.152Z,100.00
2022-09-03T05:53:34.511Z,100.00
2022-09-03T05:56:02.344Z,100.00
2022-09-03T05:58:33.150Z,100.00
2022-09-03T06:00:59.934Z,100.00
2022-09-03T06:03:27.250Z,100.00
2022-09-03T06:05:54.876Z,100.00
2022-09-03T06:08:22.256Z,100.00
2022-09-03T06:10:49.074Z,100.00
2022-09-03T06:13:15.948Z,100.00
2022-09-03T06:15:42.729Z,100.00
2022-09-03T06:18:09.615Z,100.00
2022-09-03T06:20:37.368Z,100.00
2022-09-03T06:23:04.366Z,100.00
2022-09-03T06:25:32.187Z,100.00
2022-09-03T06:27:59.351Z,100.00
2022-09-03T06:30:27.347Z,100.00
2022-09-03T06:32:54.389Z,100.00
2022-09-03T06:35:21.270Z,100.00
2022-09-03T06:37:48.185Z,100.00
2022-09-03T06:40:20.771Z,100.00
2022-09-03T06:42:55.964Z,100.00
2022-09-03T06:45:23.569Z,100.00
2022-09-03T06:47:50.445Z,100.00
2022-09-03T06:50:18.371Z,100.00
2022-09-03T06:52:45.227Z,100.00
2022-09-03T06:55:12.148Z,100.00
2022-09-03T06:57:38.919Z,100.00
2022-09-03T07:00:06.940Z,100.00
2022-09-03T07:02:33.864Z,100.00
2022-09-03T07:05:00.701Z,100.00
2022-09-03T07:07:27.521Z,100.00
2022-09-03T07:09:54.406Z,100.00
2022-09-03T07:12:21.184Z,100.00
2022-09-03T07:14:48.142Z,100.00
2022-09-03T07:17:18.036Z,100.00
2022-09-03T07:19:44.871Z,100.00
2022-09-03T07:22:11.902Z,100.00
2022-09-03T07:24:38.727Z,100.00
2022-09-03T07:27:06.004Z,100.00
2022-09-03T07:29:33.051Z,100.00
2022-09-03T07:32:00.073Z,100.00
2022-09-03T07:34:27.274Z,100.00
2022-09-03T07:36:54.437Z,100.00
2022-09-03T07:39:21.561Z,100.00
2022-09-03T07:41:48.556Z,99.32
2022-09-03T07:44:19.543Z,98.63
2022-09-03T07:46:48.123Z,99.11
2022-09-03T07:49:15.118Z,97.04
2022-09-03T07:51:41.950Z,94.82
2022-09-03T07:54:11.369Z,94.90
2022-09-03T07:56:39.014Z,94.32
2022-09-03T07:59:06.013Z,92.68
2022-09-03T08:01:33.272Z,90.96
2022-09-03T08:04:00.736Z,91.01
2022-09-03T08:06:28.742Z,92.86
2022-09-03T08:09:03.494Z,89.87
2022-09-03T08:11:32.293Z,88.96
2022-09-03T08:14:01.933Z,90.15
2022-09-03T08:16:29.633Z,86.87
2022-09-03T08:18:56.726Z,83.53
2022-09-03T08:21:24.083Z,84.26
2022-09-03T08:23:52.417Z,85.50
2022-09-03T08:26:20.475Z,87.65
2022-09-03T08:28:47.652Z,86.44
2022-09-03T08:31:15.855Z,87.86
2022-09-03T08:33:44.189Z,86.45
2022-09-03T08:36:12.985Z,83.43
2022-09-03T08:38:41.046Z,82.99
2022-09-03T08:41:12.683Z,82.01
2022-09-03T08:43:48.828Z,80.68
2022-09-03T08:46:16.803Z,81.62
2022-09-03T08:48:43.857Z,81.44
2022-09-03T08:51:12.132Z,78.90
2022-09-03T08:53:45.751Z,79.31
2022-09-03T08:56:14.867Z,80.89
2022-09-03T08:58:44.969Z,81.49
2022-09-03T09:01:24.175Z,79.03
2022-09-03T09:04:17.347Z,74.92
2022-09-03T09:06:58.353Z,76.77
2022-09-03T09:09:35.553Z,76.60
2022-09-03T09:12:16.623Z,73.69
2022-09-03T09:15:13.039Z,73.70
2022-09-03T09:18:10.019Z,73.65
2022-09-03T09:20:53.410Z,73.03
2022-09-03T09:23:24.598Z,73.72
2022-09-03T09:25:54.613Z,72.73
2022-09-03T09:28:23.004Z,73.05
2022-09-03T09:30:51.721Z,72.74
2022-09-03T09:33:20.363Z,68.72
2022-09-03T09:35:47.430Z,70.68
2022-09-03T09:38:23.257Z,69.00
2022-09-03T09:40:50.197Z,70.37
2022-09-03T09:43:20.297Z,68.39
2022-09-03T09:45:51.375Z,68.57
2022-09-03T09:48:31.705Z,69.15
2022-09-03T09:51:06.494Z,72.76
2022-09-03T09:53:33.354Z,71.04
2022-09-03T09:56:00.591Z,67.32
2022-09-03T09:58:30.984Z,71.70
2022-09-03T10:01:00.214Z,69.67
2022-09-03T10:03:33.367Z,69.08
2022-09-03T10:06:25.379Z,65.87
2022-09-03T10:08:53.033Z,65.48
2022-09-03T10:11:20.642Z,64.08
2022-09-03T10:13:48.781Z,66.92
2022-09-03T10:16:30.647Z,64.79
2022-09-03T10:19:05.334Z,65.83
2022-09-03T10:21:58.671Z,63.56
2022-09-03T10:24:39.734Z,65.52
2022-09-03T10:27:12.260Z,64.43
2022-09-03T10:29:40.906Z,65.56
2022-09-03T10:32:38.858Z,62.93
2022-09-03T10:35:39.648Z,61.50
2022-09-03T10:38:28.311Z,62.34
2022-09-03T10:41:14.269Z,62.78
2022-09-03T10:44:16.387Z,61.07
2022-09-03T10:47:15.666Z,63.13
2022-09-03T10:49:51.627Z,60.97
2022-09-03T10:52:53.508Z,59.31
2022-09-03T10:55:27.097Z,59.68
2022-09-03T10:58:14.732Z,58.94
2022-09-03T11:00:48.110Z,57.37
2022-09-03T11:03:34.161Z,55.34
2022-09-03T11:06:10.512Z,56.79
2022-09-03T11:08:47.886Z,56.59
2022-09-03T11:11:20.573Z,58.55
2022-09-03T11:13:54.661Z,56.17
2022-09-03T11:16:26.210Z,54.43
2022-09-03T11:18:56.019Z,56.19
2022-09-03T11:21:25.341Z,55.08
2022-09-03T11:24:00.673Z,53.44
2022-09-03T11:26:28.411Z,53.95
2022-09-03T11:29:10.290Z,55.86
2022-09-03T11:32:00.268Z,53.16
2022-09-03T11:34:33.031Z,52.94
2022-09-03T11:37:23.372Z,48.68
2022-09-03T11:40:21.911Z,49.28
2022-09-03T11:42:48.963Z,50.31
2022-09-03T11:45:36.022Z,49.98
2022-09-03T11:48:02.954Z,50.71
2022-09-03T11:50:33.732Z,49.63
2022-09-03T11:53:08.498Z,47.49
2022-09-03T11:55:56.039Z,48.04
2022-09-03T11:58:30.812Z,47.17
2022-09-03T12:00:59.040Z,46.51
2022-09-03T12:03:28.780Z,46.46
2022-09-03T12:06:20.736Z,48.51
2022-09-03T12:09:14.502Z,48.54
2022-09-03T12:11:59.301Z,48.83
2022-09-03T12:14:49.108Z,46.42
2022-09-03T12:17:41.934Z,44.85
2022-09-03T12:20:16.314Z,44.56
2022-09-03T12:22:43.344Z,43.93
2022-09-03T12:25:14.326Z,42.58
2022-09-03T12:27:44.498Z,43.04
2022-09-03T12:30:16.892Z,45.57
2022-09-03T12:32:44.039Z,45.65
2022-09-03T12:38:10.517Z,45.41
2022-09-03T12:43:38.615Z,40.92
2022-09-03T12:46:17.904Z,41.52
2022-09-03T12:52:01.934Z,40.32
2022-09-03T12:54:32.017Z,38.80
2022-09-03T12:56:59.981Z,40.70
2022-09-03T12:59:28.683Z,41.48
2022-09-03T13:01:59.490Z,41.11
2022-09-03T13:04:29.406Z,38.56
2022-09-03T13:07:14.770Z,40.09
2022-09-03T13:09:42.390Z,39.25
2022-09-03T13:12:21.039Z,41.22
2022-09-03T13:14:48.313Z,38.63
2022-09-03T13:17:47.412Z,37.61
2022-09-03T13:20:35.030Z,37.92
2022-09-03T13:23:13.780Z,35.58
2022-09-03T13:25:53.163Z,36.54
2022-09-03T13:28:40.645Z,38.11
2022-09-03T13:31:19.198Z,36.30
2022-09-03T13:33:50.204Z,35.90
2022-09-03T13:36:20.056Z,36.51
2022-09-03T13:38:52.407Z,36.12
2022-09-03T13:41:38.849Z,36.71
2022-09-03T13:44:12.852Z,36.70
2022-09-03T13:46:50.680Z,37.22
2022-09-03T13:49:52.042Z,37.52
2022-09-03T13:52:31.728Z,36.76
2022-09-03T13:55:09.540Z,38.78
2022-09-03T13:57:46.545Z,39.66
2022-09-03T14:00:14.986Z,38.55
2022-09-03T14:02:50.631Z,38.31
2022-09-03T14:05:43.748Z,39.03
2022-09-03T14:08:48.495Z,40.64
2022-09-03T14:11:30.216Z,39.57
2022-09-03T14:14:14.138Z,39.24
2022-09-03T14:17:07.404Z,38.66
2022-09-03T14:19:53.039Z,36.55
2022-09-03T14:22:30.276Z,34.54
2022-09-03T14:25:03.161Z,34.07
2022-09-03T14:27:35.010Z,33.03
2022-09-03T14:30:07.318Z,34.62
2022-09-03T14:32:57.270Z,35.35
2022-09-03T14:35:47.001Z,36.34
2022-09-03T14:38:36.820Z,38.14
2022-09-03T14:41:23.835Z,39.98
2022-09-03T14:44:10.857Z,39.13
2022-09-03T14:46:59.714Z,39.29
2022-09-03T14:49:47.171Z,39.10
2022-09-03T14:52:29.849Z,38.77
2022-09-03T14:55:19.626Z,38.55
2022-09-03T14:57:56.257Z,37.22
2022-09-03T15:00:48.353Z,37.85
2022-09-03T15:03:38.707Z,37.10
2022-09-03T15:06:31.147Z,37.16
2022-09-03T15:09:30.850Z,37.13
2022-09-03T15:12:03.248Z,37.91
2022-09-03T15:14:36.418Z,37.94
2022-09-03T15:17:21.826Z,36.89
2022-09-03T15:20:20.779Z,38.63
2022-09-03T15:23:07.536Z,39.92
2022-09-03T15:25:42.758Z,40.63
2022-09-03T15:28:25.172Z,39.48
2022-09-03T15:30:59.099Z,37.85
2022-09-03T15:33:49.895Z,36.75
2022-09-03T15:36:24.426Z,35.42
2022-09-03T15:39:02.359Z,34.44
2022-09-03T15:41:46.661Z,32.76
2022-09-03T15:44:19.172Z,32.62
2022-09-03T15:47:14.069Z,31.90
2022-09-03T15:50:06.537Z,30.88
2022-09-03T15:53:03.947Z,30.47
2022-09-03T15:55:36.425Z,31.22
2022-09-03T15:58:19.131Z,30.66
2022-09-03T16:00:55.393Z,29.68
2022-09-03T16:03:45.359Z,29.65
2022-09-03T16:06:38.302Z,29.35
2022-09-03T16:09:27.934Z,29.53
2022-09-03T16:12:19.045Z,29.78
2022-09-03T16:15:11.704Z,32.02
2022-09-03T16:17:43.576Z,35.12
2022-09-03T16:20:19.572Z,36.42
2022-09-03T16:22:49.410Z,36.36
2022-09-03T16:25:20.314Z,37.75
2022-09-03T16:28:07.634Z,40.39
2022-09-03T16:30:47.194Z,41.12
2022-09-03T16:33:49.372Z,41.89
2022-09-03T16:36:32.761Z,43.64
2022-09-03T16:39:03.570Z,45.07
2022-09-03T16:41:50.609Z,45.33
2022-09-03T16:44:23.435Z,45.49
2022-09-03T16:47:10.454Z,47.15
2022-09-03T16:49:55.761Z,47.86
2022-09-03T16:52:53.853Z,48.99
2022-09-03T16:55:25.732Z,50.11
2022-09-03T16:57:59.231Z,50.05
2022-09-03T17:00:41.739Z,50.59
2022-09-03T17:03:31.920Z,51.91
2022-09-03T17:06:28.683Z,53.56
2022-09-03T17:09:13.629Z,54.12
2022-09-03T17:11:50.255Z,55.07
2022-09-03T17:14:28.481Z,55.68
2022-09-03T17:17:16.958Z,56.48
2022-09-03T17:20:10.279Z,56.70
2022-09-03T17:23:12.839Z,56.89
2022-09-03T17:25:40.546Z,57.05
2022-09-03T17:28:07.744Z,58.62
2022-09-03T17:30:41.820Z,59.20
2022-09-03T17:33:36.064Z,59.65
2022-09-03T17:36:23.094Z,59.22
2022-09-03T17:39:06.913Z,59.66
2022-09-03T17:41:55.562Z,60.45
2022-09-03T17:44:39.210Z,60.99
2022-09-03T17:47:21.927Z,60.92
2022-09-03T17:49:56.737Z,60.96
2022-09-03T17:52:30.612Z,60.80
2022-09-03T17:54:59.942Z,61.09
2022-09-03T17:57:31.529Z,61.00
2022-09-03T18:00:18.833Z,61.33
2022-09-03T18:02:51.415Z,61.99
2022-09-03T18:05:26.116Z,62.08
2022-09-03T18:08:14.472Z,62.64
2022-09-03T18:11:01.682Z,63.03
2022-09-03T18:13:48.824Z,63.42
2022-09-03T18:16:27.436Z,63.46
2022-09-03T18:18:59.974Z,63.97
2022-09-03T18:21:48.790Z,64.04
2022-09-03T18:24:53.948Z,64.43
2022-09-03T18:27:54.792Z,64.37
2022-09-03T18:30:40.074Z,65.34
2022-09-03T18:33:25.682Z,66.24
2022-09-03T18:36:11.221Z,66.58
2022-09-03T18:38:57.541Z,66.85
2022-09-03T18:41:59.617Z,67.47
2022-09-03T18:45:20.981Z,68.41
2022-09-03T18:48:20.432Z,69.56
2022-09-03T18:51:26.458Z,69.93
2022-09-03T18:54:21.074Z,70.24
2022-09-03T18:57:07.541Z,70.20
2022-09-03T19:00:11.389Z,70.44
2022-09-03T19:03:21.550Z,71.59
2022-09-03T19:06:17.368Z,72.10
2022-09-03T19:09:24.303Z,72.60
2022-09-03T19:12:23.693Z,73.18
2022-09-03T19:15:31.595Z,73.67
2022-09-03T19:18:37.505Z,73.81
2022-09-03T19:21:43.137Z,74.19
2022-09-03T19:24:28.281Z,74.22
2022-09-03T19:27:51.760Z,73.93
2022-09-03T19:30:35.501Z,73.80
2022-09-03T19:33:39.857Z,74.82
2022-09-03T19:36:51.207Z,75.47
2022-09-03T19:40:11.977Z,75.39
2022-09-03T19:43:10.630Z,75.51
2022-09-03T19:46:05.414Z,75.42
2022-09-03T19:49:18.301Z,76.07
2022-09-03T19:52:22.286Z,76.64
2022-09-03T19:55:12.103Z,77.74
2022-09-03T19:57:58.750Z,78.65
2022-09-03T20:00:43.828Z,79.82
2022-09-03T20:03:30.589Z,80.34
2022-09-03T20:06:16.333Z,81.12
2022-09-03T20:09:03.081Z,81.58
2022-09-03T20:11:31.034Z,82.10
2022-09-03T20:14:14.290Z,81.97
2022-09-03T20:17:01.411Z,81.77
2022-09-03T20:19:42.551Z,81.33
2022-09-03T20:22:32.054Z,81.04
2022-09-03T20:25:18.006Z,81.14
2022-09-03T20:28:08.092Z,80.84
2022-09-03T20:30:38.388Z,80.87
2022-09-03T20:33:42.159Z,80.80
2022-09-03T20:36:37.379Z,81.44
2022-09-03T20:39:24.628Z,81.81
2022-09-03T20:42:17.283Z,82.16
2022-09-03T20:44:50.445Z,82.36
2022-09-03T20:47:46.443Z,82.80
2022-09-03T20:50:41.257Z,83.11
2022-09-03T20:53:49.255Z,83.14
2022-09-03T20:56:33.446Z,84.22
2022-09-03T20:59:22.850Z,84.81
2022-09-03T21:02:22.037Z,85.01
2022-09-03T21:04:55.111Z,85.14
2022-09-03T21:07:55.293Z,84.84
2022-09-03T21:10:32.161Z,83.97
2022-09-03T21:13:16.206Z,84.02
2022-09-03T21:15:56.627Z,84.32
2022-09-03T21:18:43.902Z,85.10
2022-09-03T21:21:16.064Z,85.19
2022-09-03T21:23:48.738Z,85.22
2022-09-03T21:26:35.834Z,85.09
2022-09-03T21:29:05.853Z,84.75
2022-09-03T21:31:42.421Z,84.73
2022-09-03T21:34:11.902Z,84.88
2022-09-03T21:36:41.730Z,85.15
2022-09-03T21:39:15.010Z,85.66
2022-09-03T21:41:49.719Z,85.50
2022-09-03T21:44:19.437Z,85.31
2022-09-03T21:46:54.413Z,85.71
2022-09-03T21:49:26.309Z,86.05
2022-09-03T21:51:59.248Z,85.99
2022-09-03T21:54:30.360Z,86.36
2022-09-03T21:57:22.089Z,86.95
2022-09-03T22:00:22.046Z,86.95
2022-09-03T22:02:49.629Z,87.27
2022-09-03T22:05:17.658Z,87.64
2022-09-03T22:08:23.210Z,87.66
2022-09-03T22:11:04.874Z,87.82
2022-09-03T22:13:35.639Z,87.70
2022-09-03T22:16:23.819Z,88.09
2022-09-03T22:18:51.098Z,88.08
2022-09-03T22:21:25.096Z,88.33
2022-09-03T22:24:24.614Z,88.80
2022-09-03T22:27:18.546Z,89.26
2022-09-03T22:30:11.656Z,89.86
2022-09-03T22:33:15.572Z,90.40
2022-09-03T22:36:05.611Z,90.23
2022-09-03T22:38:58.869Z,90.93
2022-09-03T22:41:46.285Z,91.80
2022-09-03T22:44:45.434Z,92.06
2022-09-03T22:47:38.463Z,92.61
2022-09-03T22:50:15.329Z,92.58
2022-09-03T22:52:47.503Z,92.50
2022-09-03T22:55:23.328Z,92.70
2022-09-03T22:58:10.427Z,92.32
2022-09-03T23:00:59.282Z,92.26
2022-09-03T23:03:30.514Z,92.24
2022-09-03T23:06:03.937Z,92.39
2022-09-03T23:08:36.866Z,92.81
2022-09-03T23:11:25.713Z,92.97
2022-09-03T23:14:01.577Z,93.15
2022-09-03T23:16:39.078Z,93.06
2022-09-03T23:21:57.550Z,93.28
2022-09-03T23:24:44.670Z,93.54
2022-09-03T23:27:17.676Z,93.65
2022-09-03T23:29:51.137Z,93.94
2022-09-03T23:32:18.435Z,94.47
2022-09-03T23:34:45.336Z,94.63
2022-09-03T23:37:42.126Z,94.18
2022-09-03T23:40:27.402Z,94.46
2022-09-03T23:43:12.780Z,94.75
2022-09-03T23:46:00.668Z,94.04
2022-09-03T23:48:55.862Z,94.35
2022-09-03T23:51:30.719Z,94.82
2022-09-03T23:54:13.182Z,95.09
2022-09-03T23:57:00.535Z,94.93
2022-09-03T23:59:50.215Z,95.11
